sensor_id;sensor_type;location;lat;lon;timestamp;temperature;humidity
1351;DHT22;669;50.206;9.998;2023-03-14T00:00:28;8.40;99.90
1351;DHT22;669;50.206;9.998;2023-03-14T00:02:57;8.40;99.90
1351;DHT22;669;50.206;9.998;2023-03-14T00:05:25;8.40;99.90
1351;DHT22;669;50.206;9.998;2023-03-14T00:07:53;8.50;99.90
1351;DHT22;669;50.206;9.998;2023-03-14T00:10:21;8.40;99.90
1351;DHT22;669;50.206;9.998;2023-03-14T00:12:49;8.40;99.90
1351;DHT22;669;50.206;9.998;2023-03-14T00:15:17;8.50;99.90
1351;DHT22;669;50.206;9.998;2023-03-14T00:17:45;8.50;99.90
1351;DHT22;669;50.206;9.998;2023-03-14T00:20:14;8.50;99.90
1351;DHT22;669;50.206;9.998;2023-03-14T00:22:42;8.50;99.90
1351;DHT22;669;50.206;9.998;2023-03-14T00:25:11;8.50;99.90
1351;DHT22;669;50.206;9.998;2023-03-14T00:27:39;8.50;99.90
1351;DHT22;669;50.206;9.998;2023-03-14T00:30:08;8.60;99.90
1351;DHT22;669;50.206;9.998;2023-03-14T00:32:36;8.60;99.90
1351;DHT22;669;50.206;9.998;2023-03-14T00:35:05;8.50;99.90
1351;DHT22;669;50.206;9.998;2023-03-14T00:37:34;8.50;99.90
1351;DHT22;669;50.206;9.998;2023-03-14T00:40:03;8.50;99.90
1351;DHT22;669;50.206;9.998;2023-03-14T00:42:33;8.50;99.90
1351;DHT22;669;50.206;9.998;2023-03-14T00:45:01;8.50;99.90
1351;DHT22;669;50.206;9.998;2023-03-14T00:47:29;8.60;99.90
1351;DHT22;669;50.206;9.998;2023-03-14T00:49:56;8.60;99.90
1351;DHT22;669;50.206;9.998;2023-03-14T00:52:24;8.60;99.90
1351;DHT22;669;50.206;9.998;2023-03-14T00:54:54;8.60;99.90
1351;DHT22;669;50.206;9.998;2023-03-14T00:57:21;8.70;99.90
1351;DHT22;669;50.206;9.998;2023-03-14T00:59:51;8.70;99.90
1351;DHT22;669;50.206;9.998;2023-03-14T01:02:19;8.70;99.90
1351;DHT22;669;50.206;9.998;2023-03-14T01:04:47;8.70;99.90
1351;DHT22;669;50.206;9.998;2023-03-14T01:07:16;8.70;99.90
1351;DHT22;669;50.206;9.998;2023-03-14T01:09:44;8.70;99.90
1351;DHT22;669;50.206;9.998;2023-03-14T01:12:13;8.70;99.90
1351;DHT22;669;50.206;9.998;2023-03-14T01:14:41;8.70;99.90
1351;DHT22;669;50.206;9.998;2023-03-14T01:17:09;8.70;99.90
1351;DHT22;669;50.206;9.998;2023-03-14T01:19:36;8.70;99.90
1351;DHT22;669;50.206;9.998;2023-03-14T01:22:04;8.70;99.90
1351;DHT22;669;50.206;9.998;2023-03-14T01:24:32;8.70;99.90
1351;DHT22;669;50.206;9.998;2023-03-14T01:27:00;8.70;99.90
1351;DHT22;669;50.206;9.998;2023-03-14T01:29:29;8.70;99.90
1351;DHT22;669;50.206;9.998;2023-03-14T01:31:57;8.80;99.90
1351;DHT22;669;50.206;9.998;2023-03-14T01:34:25;8.80;99.90
1351;DHT22;669;50.206;9.998;2023-03-14T01:36:53;8.80;99.90
1351;DHT22;669;50.206;9.998;2023-03-14T01:39:21;8.80;99.70
1351;DHT22;669;50.206;9.998;2023-03-14T01:41:49;8.80;99.80
1351;DHT22;669;50.206;9.998;2023-03-14T01:44:16;8.80;99.90
1351;DHT22;669;50.206;9.998;2023-03-14T01:46:46;8.80;99.90
1351;DHT22;669;50.206;9.998;2023-03-14T01:49:24;8.70;99.90
1351;DHT22;669;50.206;9.998;2023-03-14T01:51:56;8.70;99.80
1351;DHT22;669;50.206;9.998;2023-03-14T01:54:28;8.70;99.90
1351;DHT22;669;50.206;9.998;2023-03-14T01:57:02;8.70;99.90
1351;DHT22;669;50.206;9.998;2023-03-14T01:59:31;8.70;99.90
1351;DHT22;669;50.206;9.998;2023-03-14T02:02:02;8.70;99.90
1351;DHT22;669;50.206;9.998;2023-03-14T02:04:34;8.70;99.90
1351;DHT22;669;50.206;9.998;2023-03-14T02:07:07;8.70;99.90
1351;DHT22;669;50.206;9.998;2023-03-14T02:09:38;8.70;99.90
1351;DHT22;669;50.206;9.998;2023-03-14T02:12:07;8.80;99.90
1351;DHT22;669;50.206;9.998;2023-03-14T02:14:36;8.80;99.90
1351;DHT22;669;50.206;9.998;2023-03-14T02:17:06;8.80;99.90
1351;DHT22;669;50.206;9.998;2023-03-14T02:19:53;8.80;99.90
1351;DHT22;669;50.206;9.998;2023-03-14T02:22:23;8.70;99.90
1351;DHT22;669;50.206;9.998;2023-03-14T02:24:57;8.70;99.90
1351;DHT22;669;50.206;9.998;2023-03-14T02:27:28;8.80;99.90
1351;DHT22;669;50.206;9.998;2023-03-14T02:29:58;8.80;99.90
1351;DHT22;669;50.206;9.998;2023-03-14T02:32:29;8.80;99.70
1351;DHT22;669;50.206;9.998;2023-03-14T02:34:58;8.80;99.40
1351;DHT22;669;50.206;9.998;2023-03-14T02:37:32;8.80;99.20
1351;DHT22;669;50.206;9.998;2023-03-14T02:40:03;8.80;99.30
1351;DHT22;669;50.206;9.998;2023-03-14T02:42:32;8.80;99.30
1351;DHT22;669;50.206;9.998;2023-03-14T02:45:39;8.80;99.20
1351;DHT22;669;50.206;9.998;2023-03-14T02:48:11;8.90;99.10
1351;DHT22;669;50.206;9.998;2023-03-14T02:50:41;8.90;98.70
1351;DHT22;669;50.206;9.998;2023-03-14T02:53:12;8.80;98.70
1351;DHT22;669;50.206;9.998;2023-03-14T02:55:40;8.80;98.60
1351;DHT22;669;50.206;9.998;2023-03-14T02:58:07;8.80;98.50
1351;DHT22;669;50.206;9.998;2023-03-14T03:00:35;8.80;98.60
1351;DHT22;669;50.206;9.998;2023-03-14T03:03:05;8.70;98.80
1351;DHT22;669;50.206;9.998;2023-03-14T03:05:33;8.70;98.80
1351;DHT22;669;50.206;9.998;2023-03-14T03:08:01;8.70;98.90
1351;DHT22;669;50.206;9.998;2023-03-14T03:10:29;8.70;98.80
1351;DHT22;669;50.206;9.998;2023-03-14T03:12:57;8.70;98.60
1351;DHT22;669;50.206;9.998;2023-03-14T03:15:26;8.70;98.80
1351;DHT22;669;50.206;9.998;2023-03-14T03:17:54;8.60;98.90
1351;DHT22;669;50.206;9.998;2023-03-14T03:20:23;8.60;99.00
1351;DHT22;669;50.206;9.998;2023-03-14T03:22:51;8.60;99.10
1351;DHT22;669;50.206;9.998;2023-03-14T03:25:19;8.60;98.90
1351;DHT22;669;50.206;9.998;2023-03-14T03:27:47;8.60;98.60
1351;DHT22;669;50.206;9.998;2023-03-14T03:30:15;8.60;98.80
1351;DHT22;669;50.206;9.998;2023-03-14T03:32:43;8.60;99.00
1351;DHT22;669;50.206;9.998;2023-03-14T03:35:11;8.60;99.00
1351;DHT22;669;50.206;9.998;2023-03-14T03:37:41;8.60;98.80
1351;DHT22;669;50.206;9.998;2023-03-14T03:40:10;8.70;98.30
1351;DHT22;669;50.206;9.998;2023-03-14T03:42:38;8.70;97.90
1351;DHT22;669;50.206;9.998;2023-03-14T03:45:07;8.90;97.30
1351;DHT22;669;50.206;9.998;2023-03-14T03:47:35;9.00;96.80
1351;DHT22;669;50.206;9.998;2023-03-14T03:50:03;9.00;96.60
1351;DHT22;669;50.206;9.998;2023-03-14T03:52:31;9.00;96.40
1351;DHT22;669;50.206;9.998;2023-03-14T03:55:00;9.00;96.60
1351;DHT22;669;50.206;9.998;2023-03-14T03:57:28;8.90;96.90
1351;DHT22;669;50.206;9.998;2023-03-14T03:59:56;8.80;97.20
1351;DHT22;669;50.206;9.998;2023-03-14T04:02:24;8.80;97.50
1351;DHT22;669;50.206;9.998;2023-03-14T04:04:52;8.70;97.70
1351;DHT22;669;50.206;9.998;2023-03-14T04:07:20;8.70;98.00
1351;DHT22;669;50.206;9.998;2023-03-14T04:09:48;8.70;98.10
1351;DHT22;669;50.206;9.998;2023-03-14T04:12:18;8.70;98.30
1351;DHT22;669;50.206;9.998;2023-03-14T04:14:45;8.70;98.50
1351;DHT22;669;50.206;9.998;2023-03-14T04:17:13;8.70;98.80
1351;DHT22;669;50.206;9.998;2023-03-14T04:19:41;8.60;99.00
1351;DHT22;669;50.206;9.998;2023-03-14T04:22:09;8.60;99.10
1351;DHT22;669;50.206;9.998;2023-03-14T04:24:37;8.60;99.30
1351;DHT22;669;50.206;9.998;2023-03-14T04:27:05;8.50;99.40
1351;DHT22;669;50.206;9.998;2023-03-14T04:29:34;8.50;99.90
1351;DHT22;669;50.206;9.998;2023-03-14T04:32:02;8.50;99.70
1351;DHT22;669;50.206;9.998;2023-03-14T04:34:30;8.40;99.90
1351;DHT22;669;50.206;9.998;2023-03-14T04:36:58;8.40;99.90
1351;DHT22;669;50.206;9.998;2023-03-14T04:39:26;8.40;99.90
1351;DHT22;669;50.206;9.998;2023-03-14T04:41:54;8.40;99.90
1351;DHT22;669;50.206;9.998;2023-03-14T04:44:22;8.40;99.90
1351;DHT22;669;50.206;9.998;2023-03-14T04:46:51;8.30;99.90
1351;DHT22;669;50.206;9.998;2023-03-14T04:49:19;8.30;99.90
1351;DHT22;669;50.206;9.998;2023-03-14T04:51:47;8.30;99.90
1351;DHT22;669;50.206;9.998;2023-03-14T04:54:17;8.30;99.90
1351;DHT22;669;50.206;9.998;2023-03-14T04:56:45;8.20;99.90
1351;DHT22;669;50.206;9.998;2023-03-14T04:59:13;8.20;99.90
1351;DHT22;669;50.206;9.998;2023-03-14T05:01:40;8.30;99.90
1351;DHT22;669;50.206;9.998;2023-03-14T05:04:10;8.30;99.90
1351;DHT22;669;50.206;9.998;2023-03-14T05:06:38;8.20;99.90
1351;DHT22;669;50.206;9.998;2023-03-14T05:09:06;8.20;99.90
1351;DHT22;669;50.206;9.998;2023-03-14T05:11:33;8.30;99.90
1351;DHT22;669;50.206;9.998;2023-03-14T05:14:01;8.30;99.90
1351;DHT22;669;50.206;9.998;2023-03-14T05:16:29;8.30;99.90
1351;DHT22;669;50.206;9.998;2023-03-14T05:18:57;8.30;99.90
1351;DHT22;669;50.206;9.998;2023-03-14T05:21:29;8.30;99.90
1351;DHT22;669;50.206;9.998;2023-03-14T05:23:57;8.30;99.90
1351;DHT22;669;50.206;9.998;2023-03-14T05:26:24;8.30;99.80
1351;DHT22;669;50.206;9.998;2023-03-14T05:28:52;8.40;99.30
1351;DHT22;669;50.206;9.998;2023-03-14T05:31:20;8.40;99.20
1351;DHT22;669;50.206;9.998;2023-03-14T05:33:48;8.40;99.00
1351;DHT22;669;50.206;9.998;2023-03-14T05:36:16;8.40;99.00
1351;DHT22;669;50.206;9.998;2023-03-14T05:38:45;8.40;99.00
1351;DHT22;669;50.206;9.998;2023-03-14T05:41:13;8.50;99.10
1351;DHT22;669;50.206;9.998;2023-03-14T05:43:41;8.40;98.90
1351;DHT22;669;50.206;9.998;2023-03-14T05:46:09;8.40;99.00
1351;DHT22;669;50.206;9.998;2023-03-14T05:48:37;8.30;99.20
1351;DHT22;669;50.206;9.998;2023-03-14T05:51:05;8.30;99.50
1351;DHT22;669;50.206;9.998;2023-03-14T05:53:33;8.30;99.60
1351;DHT22;669;50.206;9.998;2023-03-14T05:56:02;8.20;99.60
1351;DHT22;669;50.206;9.998;2023-03-14T05:58:30;8.20;99.70
1351;DHT22;669;50.206;9.998;2023-03-14T06:01:01;8.20;99.80
1351;DHT22;669;50.206;9.998;2023-03-14T06:03:29;8.20;99.80
1351;DHT22;669;50.206;9.998;2023-03-14T06:05:57;8.20;99.80
1351;DHT22;669;50.206;9.998;2023-03-14T06:08:25;8.20;99.80
1351;DHT22;669;50.206;9.998;2023-03-14T06:10:54;8.30;99.60
1351;DHT22;669;50.206;9.998;2023-03-14T06:13:25;8.30;99.30
1351;DHT22;669;50.206;9.998;2023-03-14T06:15:53;8.40;99.10
1351;DHT22;669;50.206;9.998;2023-03-14T06:18:21;8.30;99.00
1351;DHT22;669;50.206;9.998;2023-03-14T06:20:49;8.40;99.00
1351;DHT22;669;50.206;9.998;2023-03-14T06:23:20;8.40;98.80
1351;DHT22;669;50.206;9.998;2023-03-14T06:25:48;8.40;98.40
1351;DHT22;669;50.206;9.998;2023-03-14T06:28:16;8.40;98.30
1351;DHT22;669;50.206;9.998;2023-03-14T06:30:46;8.50;97.60
1351;DHT22;669;50.206;9.998;2023-03-14T06:33:14;8.60;97.10
1351;DHT22;669;50.206;9.998;2023-03-14T06:35:41;8.50;97.10
1351;DHT22;669;50.206;9.998;2023-03-14T06:38:09;8.50;97.30
1351;DHT22;669;50.206;9.998;2023-03-14T06:40:37;8.40;97.40
1351;DHT22;669;50.206;9.998;2023-03-14T06:43:05;8.50;97.50
1351;DHT22;669;50.206;9.998;2023-03-14T06:45:33;8.40;97.40
1351;DHT22;669;50.206;9.998;2023-03-14T06:48:02;8.40;97.10
1351;DHT22;669;50.206;9.998;2023-03-14T06:50:30;8.50;96.80
1351;DHT22;669;50.206;9.998;2023-03-14T06:52:58;8.50;96.40
1351;DHT22;669;50.206;9.998;2023-03-14T06:55:26;8.50;96.40
1351;DHT22;669;50.206;9.998;2023-03-14T06:57:54;8.50;96.30
1351;DHT22;669;50.206;9.998;2023-03-14T07:00:22;8.50;96.40
1351;DHT22;669;50.206;9.998;2023-03-14T07:02:51;8.50;96.10
1351;DHT22;669;50.206;9.998;2023-03-14T07:05:20;8.60;95.10
1351;DHT22;669;50.206;9.998;2023-03-14T07:07:48;8.60;94.90
1351;DHT22;669;50.206;9.998;2023-03-14T07:10:16;8.60;95.10
1351;DHT22;669;50.206;9.998;2023-03-14T07:12:44;8.70;94.50
1351;DHT22;669;50.206;9.998;2023-03-14T07:15:12;8.70;94.40
1351;DHT22;669;50.206;9.998;2023-03-14T07:17:45;8.70;93.90
1351;DHT22;669;50.206;9.998;2023-03-14T07:20:14;8.80;93.60
1351;DHT22;669;50.206;9.998;2023-03-14T07:22:45;8.80;92.80
1351;DHT22;669;50.206;9.998;2023-03-14T07:25:14;8.90;92.90
1351;DHT22;669;50.206;9.998;2023-03-14T07:27:43;8.90;92.60
1351;DHT22;669;50.206;9.998;2023-03-14T07:30:12;9.00;92.40
1351;DHT22;669;50.206;9.998;2023-03-14T07:32:40;9.00;92.40
1351;DHT22;669;50.206;9.998;2023-03-14T07:35:08;9.00;92.50
1351;DHT22;669;50.206;9.998;2023-03-14T07:37:36;9.30;91.40
1351;DHT22;669;50.206;9.998;2023-03-14T07:40:07;9.30;91.20
1351;DHT22;669;50.206;9.998;2023-03-14T07:42:37;9.40;91.00
1351;DHT22;669;50.206;9.998;2023-03-14T07:45:06;9.40;91.10
1351;DHT22;669;50.206;9.998;2023-03-14T07:47:34;9.40;91.10
1351;DHT22;669;50.206;9.998;2023-03-14T07:50:02;9.40;90.60
1351;DHT22;669;50.206;9.998;2023-03-14T07:52:30;9.30;90.90
1351;DHT22;669;50.206;9.998;2023-03-14T07:54:58;9.30;90.80
1351;DHT22;669;50.206;9.998;2023-03-14T07:57:27;9.30;91.20
1351;DHT22;669;50.206;9.998;2023-03-14T07:59:55;9.30;90.40
1351;DHT22;669;50.206;9.998;2023-03-14T08:02:23;9.30;90.90
1351;DHT22;669;50.206;9.998;2023-03-14T08:04:51;9.20;91.10
1351;DHT22;669;50.206;9.998;2023-03-14T08:07:19;9.20;91.30
1351;DHT22;669;50.206;9.998;2023-03-14T08:09:47;9.20;91.30
1351;DHT22;669;50.206;9.998;2023-03-14T08:12:14;9.30;91.40
1351;DHT22;669;50.206;9.998;2023-03-14T08:14:44;9.30;91.40
1351;DHT22;669;50.206;9.998;2023-03-14T08:17:12;9.30;91.90
1351;DHT22;669;50.206;9.998;2023-03-14T08:19:41;9.30;91.70
1351;DHT22;669;50.206;9.998;2023-03-14T08:22:09;9.30;91.90
1351;DHT22;669;50.206;9.998;2023-03-14T08:24:36;9.30;91.60
1351;DHT22;669;50.206;9.998;2023-03-14T08:27:04;9.40;91.60
1351;DHT22;669;50.206;9.998;2023-03-14T08:29:36;9.40;91.80
1351;DHT22;669;50.206;9.998;2023-03-14T08:32:05;9.40;91.40
1351;DHT22;669;50.206;9.998;2023-03-14T08:34:33;9.30;92.10
1351;DHT22;669;50.206;9.998;2023-03-14T08:37:01;9.30;92.70
1351;DHT22;669;50.206;9.998;2023-03-14T08:39:36;9.30;92.70
1351;DHT22;669;50.206;9.998;2023-03-14T08:42:04;9.30;92.80
1351;DHT22;669;50.206;9.998;2023-03-14T08:44:32;9.30;92.60
1351;DHT22;669;50.206;9.998;2023-03-14T08:47:00;9.50;91.90
1351;DHT22;669;50.206;9.998;2023-03-14T08:49:29;9.50;92.10
1351;DHT22;669;50.206;9.998;2023-03-14T08:51:57;9.60;92.50
1351;DHT22;669;50.206;9.998;2023-03-14T08:54:25;9.80;92.00
1351;DHT22;669;50.206;9.998;2023-03-14T08:56:53;10.00;91.10
1351;DHT22;669;50.206;9.998;2023-03-14T08:59:21;10.10;89.80
1351;DHT22;669;50.206;9.998;2023-03-14T09:01:49;10.10;90.40
1351;DHT22;669;50.206;9.998;2023-03-14T09:04:17;10.00;89.60
1351;DHT22;669;50.206;9.998;2023-03-14T09:06:47;9.90;91.60
1351;DHT22;669;50.206;9.998;2023-03-14T09:09:15;9.90;91.60
1351;DHT22;669;50.206;9.998;2023-03-14T09:11:44;9.90;91.90
1351;DHT22;669;50.206;9.998;2023-03-14T09:14:12;9.80;91.80
1351;DHT22;669;50.206;9.998;2023-03-14T09:16:40;9.70;93.00
1351;DHT22;669;50.206;9.998;2023-03-14T09:19:08;9.70;92.90
1351;DHT22;669;50.206;9.998;2023-03-14T09:21:36;9.70;93.40
1351;DHT22;669;50.206;9.998;2023-03-14T09:24:07;9.60;93.50
1351;DHT22;669;50.206;9.998;2023-03-14T09:26:35;9.60;93.50
1351;DHT22;669;50.206;9.998;2023-03-14T09:29:03;9.60;94.00
1351;DHT22;669;50.206;9.998;2023-03-14T09:31:30;9.60;94.10
1351;DHT22;669;50.206;9.998;2023-03-14T09:33:58;9.70;94.00
1351;DHT22;669;50.206;9.998;2023-03-14T09:36:26;9.70;94.40
1351;DHT22;669;50.206;9.998;2023-03-14T09:38:54;9.70;94.30
1351;DHT22;669;50.206;9.998;2023-03-14T09:41:25;9.70;94.80
1351;DHT22;669;50.206;9.998;2023-03-14T09:44:00;9.60;94.80
1351;DHT22;669;50.206;9.998;2023-03-14T09:46:31;9.50;95.50
1351;DHT22;669;50.206;9.998;2023-03-14T09:49:00;9.50;95.50
1351;DHT22;669;50.206;9.998;2023-03-14T09:51:28;9.50;95.20
1351;DHT22;669;50.206;9.998;2023-03-14T09:53:56;9.50;95.20
1351;DHT22;669;50.206;9.998;2023-03-14T09:56:29;9.60;94.90
1351;DHT22;669;50.206;9.998;2023-03-14T09:59:00;9.50;95.50
1351;DHT22;669;50.206;9.998;2023-03-14T10:01:32;9.60;95.50
1351;DHT22;669;50.206;9.998;2023-03-14T10:04:05;9.70;95.40
1351;DHT22;669;50.206;9.998;2023-03-14T10:06:34;9.70;95.60
1351;DHT22;669;50.206;9.998;2023-03-14T10:09:02;9.70;95.60
1351;DHT22;669;50.206;9.998;2023-03-14T10:11:33;9.80;95.60
1351;DHT22;669;50.206;9.998;2023-03-14T10:14:06;9.80;95.30
1351;DHT22;669;50.206;9.998;2023-03-14T10:16:36;9.80;95.60
1351;DHT22;669;50.206;9.998;2023-03-14T10:19:06;9.90;95.80
1351;DHT22;669;50.206;9.998;2023-03-14T10:21:37;9.90;95.10
1351;DHT22;669;50.206;9.998;2023-03-14T10:24:16;9.80;96.20
1351;DHT22;669;50.206;9.998;2023-03-14T10:26:49;9.80;95.80
1351;DHT22;669;50.206;9.998;2023-03-14T10:29:19;9.80;95.50
1351;DHT22;669;50.206;9.998;2023-03-14T10:31:52;9.80;96.10
1351;DHT22;669;50.206;9.998;2023-03-14T10:34:25;9.80;95.80
1351;DHT22;669;50.206;9.998;2023-03-14T10:36:55;9.80;96.10
1351;DHT22;669;50.206;9.998;2023-03-14T10:39:27;9.80;96.40
1351;DHT22;669;50.206;9.998;2023-03-14T10:42:04;9.70;95.60
1351;DHT22;669;50.206;9.998;2023-03-14T10:44:33;9.70;95.80
1351;DHT22;669;50.206;9.998;2023-03-14T10:47:03;9.70;96.40
1351;DHT22;669;50.206;9.998;2023-03-14T10:49:34;9.80;95.60
1351;DHT22;669;50.206;9.998;2023-03-14T10:52:15;9.90;95.90
1351;DHT22;669;50.206;9.998;2023-03-14T10:54:47;9.90;96.40
1351;DHT22;669;50.206;9.998;2023-03-14T10:57:19;9.90;96.10
1351;DHT22;669;50.206;9.998;2023-03-14T10:59:47;10.00;95.30
1351;DHT22;669;50.206;9.998;2023-03-14T11:02:32;10.10;95.30
1351;DHT22;669;50.206;9.998;2023-03-14T11:05:11;10.10;95.80
1351;DHT22;669;50.206;9.998;2023-03-14T11:07:42;10.20;95.10
1351;DHT22;669;50.206;9.998;2023-03-14T11:10:20;10.30;95.10
1351;DHT22;669;50.206;9.998;2023-03-14T11:13:01;10.50;94.30
1351;DHT22;669;50.206;9.998;2023-03-14T11:15:37;10.60;95.00
1351;DHT22;669;50.206;9.998;2023-03-14T11:18:26;10.70;94.00
1351;DHT22;669;50.206;9.998;2023-03-14T11:21:02;10.70;93.30
1351;DHT22;669;50.206;9.998;2023-03-14T11:23:39;10.70;93.00
1351;DHT22;669;50.206;9.998;2023-03-14T11:26:18;10.60;93.80
1351;DHT22;669;50.206;9.998;2023-03-14T11:28:50;10.50;93.90
1351;DHT22;669;50.206;9.998;2023-03-14T11:31:26;10.50;94.30
1351;DHT22;669;50.206;9.998;2023-03-14T11:33:57;10.40;95.40
1351;DHT22;669;50.206;9.998;2023-03-14T11:36:31;10.30;95.70
1351;DHT22;669;50.206;9.998;2023-03-14T11:39:00;10.20;95.30
1351;DHT22;669;50.206;9.998;2023-03-14T11:41:33;10.10;96.00
1351;DHT22;669;50.206;9.998;2023-03-14T11:44:10;10.00;96.50
1351;DHT22;669;50.206;9.998;2023-03-14T11:46:44;9.90;98.00
1351;DHT22;669;50.206;9.998;2023-03-14T11:49:25;9.90;98.10
1351;DHT22;669;50.206;9.998;2023-03-14T11:51:56;9.80;98.60
1351;DHT22;669;50.206;9.998;2023-03-14T11:54:32;9.70;99.20
1351;DHT22;669;50.206;9.998;2023-03-14T11:57:04;9.70;99.30
1351;DHT22;669;50.206;9.998;2023-03-14T11:59:41;9.70;99.60
1351;DHT22;669;50.206;9.998;2023-03-14T12:02:20;9.60;99.60
1351;DHT22;669;50.206;9.998;2023-03-14T12:05:03;9.60;99.60
1351;DHT22;669;50.206;9.998;2023-03-14T12:07:39;9.50;99.50
1351;DHT22;669;50.206;9.998;2023-03-14T12:10:10;9.40;99.80
1351;DHT22;669;50.206;9.998;2023-03-14T12:12:38;9.40;99.90
1351;DHT22;669;50.206;9.998;2023-03-14T12:15:19;9.40;99.90
1351;DHT22;669;50.206;9.998;2023-03-14T12:17:54;9.30;99.90
1351;DHT22;669;50.206;9.998;2023-03-14T12:20:23;9.30;99.90
1351;DHT22;669;50.206;9.998;2023-03-14T12:22:52;9.30;99.90
1351;DHT22;669;50.206;9.998;2023-03-14T12:25:22;9.40;99.70
1351;DHT22;669;50.206;9.998;2023-03-14T12:28:16;9.30;99.90
1351;DHT22;669;50.206;9.998;2023-03-14T12:30:47;9.30;99.90
1351;DHT22;669;50.206;9.998;2023-03-14T12:33:33;9.30;99.90
1351;DHT22;669;50.206;9.998;2023-03-14T12:36:04;9.20;99.90
1351;DHT22;669;50.206;9.998;2023-03-14T12:41:34;9.20;99.90
1351;DHT22;669;50.206;9.998;2023-03-14T12:44:41;9.20;99.90
1351;DHT22;669;50.206;9.998;2023-03-14T12:47:47;9.20;99.90
1351;DHT22;669;50.206;9.998;2023-03-14T12:50:26;9.20;99.90
1351;DHT22;669;50.206;9.998;2023-03-14T12:53:49;9.20;99.90
1351;DHT22;669;50.206;9.998;2023-03-14T12:56:27;9.10;99.90
1351;DHT22;669;50.206;9.998;2023-03-14T12:59:13;9.10;99.90
1351;DHT22;669;50.206;9.998;2023-03-14T13:01:47;9.10;99.90
1351;DHT22;669;50.206;9.998;2023-03-14T13:04:17;9.10;99.90
1351;DHT22;669;50.206;9.998;2023-03-14T13:06:56;9.10;99.90
1351;DHT22;669;50.206;9.998;2023-03-14T13:09:53;9.10;99.90
1351;DHT22;669;50.206;9.998;2023-03-14T13:12:30;9.10;99.90
1351;DHT22;669;50.206;9.998;2023-03-14T13:15:11;9.10;99.90
1351;DHT22;669;50.206;9.998;2023-03-14T13:17:41;9.10;99.90
1351;DHT22;669;50.206;9.998;2023-03-14T13:20:14;9.10;99.90
1351;DHT22;669;50.206;9.998;2023-03-14T13:22:46;9.10;99.90
1351;DHT22;669;50.206;9.998;2023-03-14T13:25:15;9.10;99.90
1351;DHT22;669;50.206;9.998;2023-03-14T13:27:45;9.10;99.90
1351;DHT22;669;50.206;9.998;2023-03-14T13:30:19;9.10;99.90
1351;DHT22;669;50.206;9.998;2023-03-14T13:32:48;9.10;99.90
1351;DHT22;669;50.206;9.998;2023-03-14T13:35:21;8.90;99.90
1351;DHT22;669;50.206;9.998;2023-03-14T13:37:55;8.50;95.80
1351;DHT22;669;50.206;9.998;2023-03-14T13:40:37;8.20;96.00
1351;DHT22;669;50.206;9.998;2023-03-14T13:43:13;7.80;96.20
1351;DHT22;669;50.206;9.998;2023-03-14T13:45:44;7.60;96.70
1351;DHT22;669;50.206;9.998;2023-03-14T13:48:13;7.50;96.90
1351;DHT22;669;50.206;9.998;2023-03-14T13:51:03;7.40;97.30
1351;DHT22;669;50.206;9.998;2023-03-14T13:53:32;7.40;97.80
1351;DHT22;669;50.206;9.998;2023-03-14T13:56:02;7.30;97.80
1351;DHT22;669;50.206;9.998;2023-03-14T13:58:31;7.30;97.80
1351;DHT22;669;50.206;9.998;2023-03-14T14:01:05;7.30;97.60
1351;DHT22;669;50.206;9.998;2023-03-14T14:03:37;7.30;97.70
1351;DHT22;669;50.206;9.998;2023-03-14T14:06:11;7.20;98.40
1351;DHT22;669;50.206;9.998;2023-03-14T14:08:44;7.20;98.30
1351;DHT22;669;50.206;9.998;2023-03-14T14:11:21;7.20;98.30
1351;DHT22;669;50.206;9.998;2023-03-14T14:13:58;7.20;98.30
1351;DHT22;669;50.206;9.998;2023-03-14T14:16:28;7.20;98.50
1351;DHT22;669;50.206;9.998;2023-03-14T14:18:57;7.20;98.50
1351;DHT22;669;50.206;9.998;2023-03-14T14:21:28;7.30;98.00
1351;DHT22;669;50.206;9.998;2023-03-14T14:23:58;7.30;98.30
1351;DHT22;669;50.206;9.998;2023-03-14T14:26:27;7.40;98.20
1351;DHT22;669;50.206;9.998;2023-03-14T14:29:00;7.40;97.90
1351;DHT22;669;50.206;9.998;2023-03-14T14:31:28;7.60;97.50
1351;DHT22;669;50.206;9.998;2023-03-14T14:33:57;7.70;97.30
1351;DHT22;669;50.206;9.998;2023-03-14T14:36:30;7.70;96.10
1351;DHT22;669;50.206;9.998;2023-03-14T14:39:00;8.00;96.90
1351;DHT22;669;50.206;9.998;2023-03-14T14:41:33;8.10;95.40
1351;DHT22;669;50.206;9.998;2023-03-14T14:44:04;8.20;95.60
1351;DHT22;669;50.206;9.998;2023-03-14T14:46:34;8.20;94.70
1351;DHT22;669;50.206;9.998;2023-03-14T14:49:06;8.10;93.80
1351;DHT22;669;50.206;9.998;2023-03-14T14:51:41;8.10;91.90
1351;DHT22;669;50.206;9.998;2023-03-14T14:54:15;8.00;92.30
1351;DHT22;669;50.206;9.998;2023-03-14T14:56:48;7.90;92.70
1351;DHT22;669;50.206;9.998;2023-03-14T14:59:22;7.90;92.80
1351;DHT22;669;50.206;9.998;2023-03-14T15:01:55;8.10;93.60
1351;DHT22;669;50.206;9.998;2023-03-14T15:04:23;8.20;93.20
1351;DHT22;669;50.206;9.998;2023-03-14T15:06:53;8.20;90.30
1351;DHT22;669;50.206;9.998;2023-03-14T15:09:21;8.20;91.60
1351;DHT22;669;50.206;9.998;2023-03-14T15:11:49;8.10;90.90
1351;DHT22;669;50.206;9.998;2023-03-14T15:14:17;8.00;91.40
1351;DHT22;669;50.206;9.998;2023-03-14T15:16:45;7.90;91.40
1351;DHT22;669;50.206;9.998;2023-03-14T15:19:19;7.90;91.50
1351;DHT22;669;50.206;9.998;2023-03-14T15:21:52;7.90;91.70
1351;DHT22;669;50.206;9.998;2023-03-14T15:24:21;7.70;91.60
1351;DHT22;669;50.206;9.998;2023-03-14T15:26:49;7.50;93.70
1351;DHT22;669;50.206;9.998;2023-03-14T15:29:17;7.30;93.50
1351;DHT22;669;50.206;9.998;2023-03-14T15:31:45;7.00;92.90
1351;DHT22;669;50.206;9.998;2023-03-14T15:34:13;6.90;93.10
1351;DHT22;669;50.206;9.998;2023-03-14T15:36:41;6.80;93.40
1351;DHT22;669;50.206;9.998;2023-03-14T15:39:11;6.70;94.30
1351;DHT22;669;50.206;9.998;2023-03-14T15:41:39;6.80;95.10
1351;DHT22;669;50.206;9.998;2023-03-14T15:44:07;6.80;94.30
1351;DHT22;669;50.206;9.998;2023-03-14T15:46:35;6.90;94.40
1351;DHT22;669;50.206;9.998;2023-03-14T15:49:02;6.80;93.80
1351;DHT22;669;50.206;9.998;2023-03-14T15:51:30;6.80;93.90
1351;DHT22;669;50.206;9.998;2023-03-14T15:53:58;6.70;92.80
1351;DHT22;669;50.206;9.998;2023-03-14T15:56:28;6.60;93.30
1351;DHT22;669;50.206;9.998;2023-03-14T15:58:57;6.60;93.80
1351;DHT22;669;50.206;9.998;2023-03-14T16:01:25;6.60;94.30
1351;DHT22;669;50.206;9.998;2023-03-14T16:03:53;6.60;94.30
1351;DHT22;669;50.206;9.998;2023-03-14T16:06:22;6.60;94.30
1351;DHT22;669;50.206;9.998;2023-03-14T16:08:50;6.60;94.50
1351;DHT22;669;50.206;9.998;2023-03-14T16:11:18;6.50;94.30
1351;DHT22;669;50.206;9.998;2023-03-14T16:13:49;6.50;94.50
1351;DHT22;669;50.206;9.998;2023-03-14T16:16:17;6.40;94.70
1351;DHT22;669;50.206;9.998;2023-03-14T16:18:46;6.30;94.40
1351;DHT22;669;50.206;9.998;2023-03-14T16:21:15;6.20;94.20
1351;DHT22;669;50.206;9.998;2023-03-14T16:23:44;6.00;93.90
1351;DHT22;669;50.206;9.998;2023-03-14T16:26:13;6.00;94.10
1351;DHT22;669;50.206;9.998;2023-03-14T16:28:42;5.80;94.00
1351;DHT22;669;50.206;9.998;2023-03-14T16:31:13;5.80;94.80
1351;DHT22;669;50.206;9.998;2023-03-14T16:33:42;5.70;95.10
1351;DHT22;669;50.206;9.998;2023-03-14T16:36:11;5.70;95.40
1351;DHT22;669;50.206;9.998;2023-03-14T16:38:42;5.60;95.20
1351;DHT22;669;50.206;9.998;2023-03-14T16:41:12;5.50;93.90
1351;DHT22;669;50.206;9.998;2023-03-14T16:43:40;5.40;93.50
1351;DHT22;669;50.206;9.998;2023-03-14T16:46:13;5.30;92.90
1351;DHT22;669;50.206;9.998;2023-03-14T16:48:43;5.20;92.50
1351;DHT22;669;50.206;9.998;2023-03-14T16:51:11;5.10;92.20
1351;DHT22;669;50.206;9.998;2023-03-14T16:53:39;5.10;92.30
1351;DHT22;669;50.206;9.998;2023-03-14T16:56:07;5.00;92.70
1351;DHT22;669;50.206;9.998;2023-03-14T16:58:37;5.00;93.30